createdAt,value
2023-05-21T00:02:18.528Z,10.63
2023-05-21T00:04:51.905Z,12.47
2023-05-21T00:07:25.520Z,12.57
2023-05-21T00:09:58.717Z,11.70
2023-05-21T00:12:32.350Z,11.20
2023-05-21T00:15:06.186Z,11.70
2023-05-21T00:17:39.949Z,10.63
2023-05-21T00:20:13.562Z,11.13
2023-05-21T00:22:48.227Z,12.57
2023-05-21T00:25:21.515Z,10.47
2023-05-21T00:27:55.662Z,13.53
2023-05-21T00:30:28.984Z,12.93
2023-05-21T00:33:03.174Z,10.70
2023-05-21T00:35:36.986Z,11.30
2023-05-21T00:38:10.344Z,11.80
2023-05-21T00:40:43.545Z,13.90
2023-05-21T00:43:16.996Z,11.53
2023-05-21T00:45:50.340Z,10.73
2023-05-21T00:48:24.414Z,13.27
2023-05-21T00:50:57.647Z,12.47
2023-05-21T00:53:31.761Z,13.67
2023-05-21T00:56:05.389Z,11.30
2023-05-21T00:58:39.404Z,11.67
2023-05-21T01:01:13.968Z,13.00
2023-05-21T01:03:48.653Z,11.23
2023-05-21T01:06:22.132Z,12.07
2023-05-21T01:08:59.142Z,10.47
2023-05-21T01:11:52.620Z,11.17
2023-05-21T01:14:26.034Z,12.60
2023-05-21T01:16:59.710Z,10.57
2023-05-21T01:19:35.597Z,13.07
2023-05-21T01:22:09.100Z,10.47
2023-05-21T01:24:47.458Z,13.00
2023-05-21T01:27:20.665Z,11.97
2023-05-21T01:29:53.912Z,11.37
2023-05-21T01:32:30.188Z,10.97
2023-05-21T01:35:08.993Z,11.03
2023-05-21T01:37:46.967Z,10.90
2023-05-21T01:40:35.438Z,13.40
2023-05-21T01:43:10.041Z,9.80
2023-05-21T01:45:43.696Z,12.27
2023-05-21T01:48:17.527Z,9.17
2023-05-21T01:50:50.987Z,10.13
2023-05-21T01:53:24.331Z,9.80
2023-05-21T01:55:57.555Z,11.40
2023-05-21T01:58:30.925Z,11.47
2023-05-21T02:01:05.101Z,9.33
2023-05-21T02:03:38.760Z,12.40
2023-05-21T02:06:12.169Z,12.70
2023-05-21T02:08:45.776Z,12.27
2023-05-21T02:11:19.065Z,11.93
2023-05-21T02:13:52.382Z,11.97
2023-05-21T02:16:26.362Z,12.33
2023-05-21T02:19:00.647Z,10.63
2023-05-21T02:21:33.948Z,10.90
2023-05-21T02:24:07.383Z,11.70
2023-05-21T02:26:41.162Z,11.13
2023-05-21T02:29:14.442Z,10.70
2023-05-21T02:31:47.751Z,10.53
2023-05-21T02:34:21.070Z,10.67
2023-05-21T02:36:54.720Z,11.60
2023-05-21T02:39:28.168Z,10.07
2023-05-21T02:42:01.404Z,11.27
2023-05-21T02:44:34.621Z,11.33
2023-05-21T02:47:10.339Z,11.23
2023-05-21T02:49:43.575Z,10.80
2023-05-21T02:52:18.539Z,10.60
2023-05-21T02:54:52.408Z,10.93
2023-05-21T02:57:25.760Z,9.97
2023-05-21T02:59:59.019Z,10.50
2023-05-21T03:02:32.845Z,10.17
2023-05-21T03:05:06.442Z,11.33
2023-05-21T03:07:39.696Z,9.93
2023-05-21T03:10:12.958Z,9.87
2023-05-21T03:12:47.128Z,9.83
2023-05-21T03:15:23.904Z,10.17
2023-05-21T03:17:57.296Z,11.80
2023-05-21T03:20:30.808Z,11.93
2023-05-21T03:23:04.382Z,10.03
2023-05-21T03:25:37.955Z,9.40
2023-05-21T03:28:11.326Z,11.90
2023-05-21T03:30:49.555Z,10.60
2023-05-21T03:33:23.334Z,10.67
2023-05-21T03:35:56.630Z,12.63
2023-05-21T03:38:29.847Z,12.70
2023-05-21T03:41:03.101Z,11.87
2023-05-21T03:43:36.374Z,10.40
2023-05-21T03:46:09.716Z,11.60
2023-05-21T03:48:42.968Z,10.33
2023-05-21T03:51:18.036Z,10.97
2023-05-21T03:53:51.746Z,10.10
2023-05-21T03:56:24.963Z,12.00
2023-05-21T03:58:58.185Z,11.00
2023-05-21T04:01:32.994Z,11.30
2023-05-21T04:04:06.518Z,12.40
2023-05-21T04:06:42.278Z,11.60
2023-05-21T04:09:16.507Z,11.20
2023-05-21T04:11:49.764Z,11.03
2023-05-21T04:14:23.654Z,10.27
2023-05-21T04:16:56.949Z,13.07
2023-05-21T04:19:30.323Z,11.43
2023-05-21T04:22:03.672Z,13.00
2023-05-21T04:24:38.260Z,12.07
2023-05-21T04:27:11.518Z,9.70
2023-05-21T04:29:44.776Z,11.50
2023-05-21T04:32:18.081Z,11.43
2023-05-21T04:34:51.318Z,11.60
2023-05-21T04:37:24.636Z,10.17
2023-05-21T04:40:01.603Z,10.30
2023-05-21T04:42:34.952Z,10.50
2023-05-21T04:45:08.777Z,11.93
2023-05-21T04:47:43.771Z,11.10
2023-05-21T04:50:17.572Z,10.33
2023-05-21T04:52:50.814Z,13.10
2023-05-21T04:55:24.014Z,11.20
2023-05-21T04:57:57.461Z,10.90
2023-05-21T05:00:30.690Z,10.73
2023-05-21T05:03:04.222Z,10.70
2023-05-21T05:05:37.755Z,11.83
2023-05-21T05:08:13.870Z,13.10
2023-05-21T05:10:48.740Z,11.00
2023-05-21T05:13:22.102Z,11.27
2023-05-21T05:15:55.410Z,10.80
2023-05-21T05:18:28.741Z,11.70
2023-05-21T05:21:02.131Z,10.60
2023-05-21T05:23:35.735Z,11.87
2023-05-21T05:26:08.984Z,11.30
2023-05-21T05:28:42.238Z,10.83
2023-05-21T05:31:15.849Z,12.60
2023-05-21T05:33:49.299Z,10.13
2023-05-21T05:36:22.538Z,11.90
2023-05-21T05:38:55.788Z,11.80
2023-05-21T05:41:29.075Z,13.73
2023-05-21T05:44:02.387Z,13.37
2023-05-21T05:46:35.866Z,11.73
2023-05-21T05:49:09.510Z,12.30
2023-05-21T05:51:42.943Z,13.30
2023-05-21T05:54:16.212Z,12.10
2023-05-21T05:56:49.462Z,11.70
2023-05-21T05:59:22.660Z,12.00
2023-05-21T06:01:55.999Z,12.37
2023-05-21T06:04:30.115Z,12.57
2023-05-21T06:07:03.527Z,13.50
2023-05-21T06:09:38.720Z,12.80
2023-05-21T06:12:14.769Z,11.77
2023-05-21T06:14:49.125Z,12.13
2023-05-21T06:17:22.425Z,12.77
2023-05-21T06:19:55.750Z,10.10
2023-05-21T06:22:29.108Z,10.73
2023-05-21T06:25:02.336Z,12.87
2023-05-21T06:27:35.781Z,13.30
2023-05-21T06:30:09.228Z,14.53
2023-05-21T06:32:42.538Z,12.47
2023-05-21T06:35:16.344Z,11.43
2023-05-21T06:37:49.750Z,13.23
2023-05-21T06:40:23.066Z,12.80
2023-05-21T06:42:56.583Z,12.30
2023-05-21T06:45:29.882Z,12.30
2023-05-21T06:48:03.204Z,10.80
2023-05-21T06:50:36.472Z,11.50
2023-05-21T06:53:09.774Z,14.27
2023-05-21T06:55:46.479Z,13.40
2023-05-21T06:58:20.049Z,12.63
2023-05-21T07:00:53.347Z,13.30
2023-05-21T07:03:27.290Z,14.87
2023-05-21T07:06:00.994Z,12.83
2023-05-21T07:08:34.393Z,11.33
2023-05-21T07:11:07.724Z,13.00
2023-05-21T07:13:41.086Z,14.40
2023-05-21T07:16:14.519Z,11.60
2023-05-21T07:18:47.821Z,10.57
2023-05-21T07:21:21.114Z,11.20
2023-05-21T07:23:54.336Z,10.90
2023-05-21T07:26:27.569Z,11.77
2023-05-21T07:29:00.841Z,10.67
2023-05-21T07:31:34.184Z,13.97
2023-05-21T07:34:07.564Z,12.10
2023-05-21T07:36:40.751Z,11.33
2023-05-21T07:39:15.530Z,11.80
2023-05-21T07:41:48.835Z,11.57
2023-05-21T07:44:22.147Z,12.33
2023-05-21T07:46:55.401Z,12.73
2023-05-21T07:49:28.749Z,11.90
2023-05-21T07:52:02.131Z,11.60
2023-05-21T07:54:35.846Z,11.10
2023-05-21T07:57:09.109Z,11.00
2023-05-21T07:59:42.354Z,11.70
2023-05-21T08:02:15.704Z,10.93
2023-05-21T08:04:49.072Z,11.37
2023-05-21T08:07:22.390Z,13.57
2023-05-21T08:09:55.954Z,10.07
2023-05-21T08:12:29.158Z,12.77
2023-05-21T08:15:02.453Z,11.87
2023-05-21T08:17:35.729Z,12.37
2023-05-21T08:20:09.311Z,11.13
2023-05-21T08:22:43.707Z,12.20
2023-05-21T08:25:16.975Z,10.70
2023-05-21T08:27:52.332Z,11.20
2023-05-21T08:30:25.989Z,10.67
2023-05-21T08:32:59.289Z,12.50
2023-05-21T08:35:32.600Z,12.00
2023-05-21T08:38:05.875Z,13.83
2023-05-21T08:40:39.254Z,13.27
2023-05-21T08:43:14.479Z,10.97
2023-05-21T08:45:53.410Z,11.33
2023-05-21T08:48:26.770Z,11.10
2023-05-21T08:51:01.298Z,12.10
2023-05-21T08:53:34.767Z,11.27
2023-05-21T08:56:08.390Z,11.20
2023-05-21T08:58:43.725Z,12.80
2023-05-21T09:01:19.538Z,12.13
2023-05-21T09:03:57.125Z,10.87
2023-05-21T09:06:36.200Z,12.10
2023-05-21T09:09:18.744Z,10.47
2023-05-21T09:11:52.032Z,11.30
2023-05-21T09:14:25.387Z,9.70
2023-05-21T09:16:58.774Z,9.40
2023-05-21T09:19:32.476Z,10.47
2023-05-21T09:22:05.903Z,10.33
2023-05-21T09:24:39.252Z,11.90
2023-05-21T09:27:12.476Z,9.43
2023-05-21T09:29:45.768Z,10.03
2023-05-21T09:32:19.377Z,11.37
2023-05-21T09:34:52.562Z,11.40
2023-05-21T09:37:28.114Z,9.97
2023-05-21T09:40:01.399Z,11.90
2023-05-21T09:42:34.654Z,9.87
2023-05-21T09:45:11.413Z,10.40
2023-05-21T09:47:45.228Z,10.23
2023-05-21T09:50:20.049Z,9.33
2023-05-21T09:52:53.327Z,10.27
2023-05-21T09:55:27.094Z,10.40
2023-05-21T09:58:00.413Z,10.90
2023-05-21T10:00:33.909Z,9.07
2023-05-21T10:03:10.986Z,9.53
2023-05-21T10:05:44.541Z,11.00
2023-05-21T10:08:19.042Z,8.93
2023-05-21T10:10:52.271Z,10.03
2023-05-21T10:13:25.682Z,8.60
2023-05-21T10:16:03.409Z,9.40
2023-05-21T10:18:38.602Z,7.57
2023-05-21T10:21:11.869Z,10.33
2023-05-21T10:23:45.545Z,9.70
2023-05-21T10:26:19.697Z,9.83
2023-05-21T10:28:53.136Z,9.20
2023-05-21T10:31:27.764Z,8.57
2023-05-21T10:34:01.636Z,9.10
2023-05-21T10:36:36.374Z,9.23
2023-05-21T10:39:10.799Z,10.20
2023-05-21T10:41:53.981Z,10.93
2023-05-21T10:44:36.741Z,8.87
2023-05-21T10:47:22.339Z,10.47
2023-05-21T10:50:13.540Z,10.10
2023-05-21T10:52:58.929Z,8.57
2023-05-21T10:55:44.261Z,9.90
2023-05-21T10:58:17.496Z,8.30
2023-05-21T11:00:51.118Z,11.03
2023-05-21T11:03:24.936Z,10.93
2023-05-21T11:05:58.476Z,11.00
2023-05-21T11:08:35.813Z,9.70
2023-05-21T11:11:09.395Z,11.20
2023-05-21T11:13:49.987Z,11.27
2023-05-21T11:16:25.903Z,9.37
2023-05-21T11:18:59.424Z,9.47
2023-05-21T11:21:34.498Z,8.57
2023-05-21T11:24:08.816Z,8.80
2023-05-21T11:26:48.222Z,8.50
2023-05-21T11:29:21.527Z,8.73
2023-05-21T11:32:05.717Z,9.37
2023-05-21T11:34:41.842Z,9.03
2023-05-21T11:37:23.227Z,9.27
2023-05-21T11:39:57.350Z,9.27
2023-05-21T11:42:31.793Z,8.23
2023-05-21T11:45:05.201Z,8.67
2023-05-21T11:47:39.134Z,7.40
2023-05-21T11:50:16.044Z,6.90
2023-05-21T11:52:49.914Z,7.67
2023-05-21T11:55:23.794Z,7.67
2023-05-21T11:57:59.218Z,9.80
2023-05-21T12:00:34.157Z,7.23
2023-05-21T12:03:08.528Z,7.80
2023-05-21T12:05:46.154Z,8.40
2023-05-21T12:08:25.634Z,9.40
2023-05-21T12:11:00.104Z,7.37
2023-05-21T12:13:33.622Z,6.43
2023-05-21T12:16:07.212Z,8.30
2023-05-21T12:18:40.505Z,7.60
2023-05-21T12:21:13.754Z,7.00
2023-05-21T12:23:47.818Z,9.40
2023-05-21T12:26:21.905Z,9.50
2023-05-21T12:28:56.046Z,7.97
2023-05-21T12:31:32.863Z,8.90
2023-05-21T12:34:08.224Z,8.80
2023-05-21T12:36:48.303Z,9.27
2023-05-21T12:39:21.581Z,7.67
2023-05-21T12:41:55.331Z,10.27
2023-05-21T12:44:30.881Z,9.50
2023-05-21T12:47:04.580Z,8.20
2023-05-21T12:49:45.032Z,10.50
2023-05-21T12:52:21.337Z,9.00
2023-05-21T12:54:56.566Z,9.70
2023-05-21T12:57:39.133Z,9.50
2023-05-21T13:00:14.234Z,9.03
2023-05-21T13:02:47.637Z,8.27
2023-05-21T13:05:21.001Z,9.40
2023-05-21T13:07:54.249Z,8.10
2023-05-21T13:10:27.671Z,9.60
2023-05-21T13:13:01.771Z,9.20
2023-05-21T13:15:35.130Z,9.30
2023-05-21T13:18:08.724Z,7.50
2023-05-21T13:20:41.992Z,7.87
2023-05-21T13:23:18.491Z,9.17
2023-05-21T13:25:51.760Z,9.50
2023-05-21T13:28:25.516Z,8.90
2023-05-21T13:30:58.766Z,8.00
2023-05-21T13:33:32.442Z,7.90
2023-05-21T13:36:05.924Z,9.27
2023-05-21T13:38:39.227Z,9.23
2023-05-21T13:41:12.734Z,8.33
2023-05-21T13:43:46.052Z,9.40
2023-05-21T13:46:19.391Z,9.03
2023-05-21T13:48:52.746Z,11.10
2023-05-21T13:54:04.325Z,8.17
2023-05-21T13:56:37.744Z,9.47
2023-05-21T13:59:11.069Z,9.47
2023-05-21T14:01:45.330Z,10.17
2023-05-21T14:04:19.018Z,10.70
2023-05-21T14:06:52.558Z,10.37
2023-05-21T14:09:27.299Z,11.90
2023-05-21T14:12:01.466Z,11.00
2023-05-21T14:14:35.027Z,10.50
2023-05-21T14:17:08.244Z,9.50
2023-05-21T14:19:41.517Z,8.80
2023-05-21T14:22:14.732Z,8.73
2023-05-21T14:24:47.993Z,7.23
2023-05-21T14:27:21.279Z,7.63
2023-05-21T14:29:54.453Z,7.50
2023-05-21T14:32:27.938Z,8.80
2023-05-21T14:35:01.479Z,7.37
2023-05-21T14:37:34.853Z,8.00
2023-05-21T14:40:08.597Z,6.73
2023-05-21T14:42:41.938Z,8.60
2023-05-21T14:45:19.012Z,8.50
2023-05-21T14:47:52.862Z,8.90
2023-05-21T14:50:26.197Z,7.37
2023-05-21T14:52:59.432Z,9.60
2023-05-21T14:55:36.713Z,6.20
2023-05-21T14:58:10.345Z,6.97
2023-05-21T15:00:43.872Z,6.20
2023-05-21T15:03:17.279Z,5.83
2023-05-21T15:05:50.568Z,5.27
2023-05-21T15:08:23.839Z,7.47
2023-05-21T15:10:57.636Z,6.50
2023-05-21T15:13:30.824Z,6.20
2023-05-21T15:16:04.349Z,6.53
2023-05-21T15:18:37.581Z,6.17
2023-05-21T15:21:10.989Z,6.73
2023-05-21T15:23:44.303Z,6.17
2023-05-21T15:26:17.763Z,7.47
2023-05-21T15:28:51.064Z,7.80
2023-05-21T15:31:24.383Z,6.87
2023-05-21T15:33:58.498Z,7.93
2023-05-21T15:36:33.535Z,9.87
2023-05-21T15:39:06.976Z,7.90
2023-05-21T15:41:40.849Z,7.40
2023-05-21T15:44:14.107Z,7.10
2023-05-21T15:46:49.816Z,6.13
2023-05-21T15:49:23.195Z,10.70
2023-05-21T15:51:57.986Z,7.30
2023-05-21T15:54:31.398Z,6.43
2023-05-21T15:57:04.687Z,5.70
2023-05-21T15:59:38.015Z,5.60
2023-05-21T16:02:11.281Z,6.10
2023-05-21T16:04:44.586Z,6.57
2023-05-21T16:07:17.932Z,5.80
2023-05-21T16:09:51.189Z,7.50
2023-05-21T16:12:24.513Z,6.43
2023-05-21T16:14:57.729Z,13.40
2023-05-21T16:17:31.637Z,6.13
2023-05-21T16:20:05.120Z,5.87
2023-05-21T16:22:38.503Z,4.47
2023-05-21T16:25:11.729Z,5.50
2023-05-21T16:27:44.994Z,5.67
2023-05-21T16:30:18.420Z,4.93
2023-05-21T16:32:51.741Z,6.30
2023-05-21T16:35:25.201Z,5.43
2023-05-21T16:37:58.622Z,7.13
2023-05-21T16:40:31.900Z,5.70
2023-05-21T16:43:05.105Z,6.10
2023-05-21T16:45:46.772Z,5.77
2023-05-21T16:48:20.672Z,5.50
2023-05-21T16:50:53.969Z,5.73
2023-05-21T16:53:28.427Z,6.10
2023-05-21T16:56:01.692Z,6.43
2023-05-21T16:58:36.080Z,5.50
2023-05-21T17:01:09.369Z,5.67
2023-05-21T17:03:43.501Z,5.37
2023-05-21T17:06:16.929Z,5.70
2023-05-21T17:08:50.376Z,5.03
2023-05-21T17:11:23.667Z,5.10
2023-05-21T17:13:57.172Z,5.03
2023-05-21T17:16:30.569Z,4.73
2023-05-21T17:19:03.841Z,5.27
2023-05-21T17:21:37.123Z,4.90
2023-05-21T17:24:10.639Z,4.87
2023-05-21T17:26:43.873Z,5.10
2023-05-21T17:29:17.241Z,4.83
2023-05-21T17:31:50.600Z,4.73
2023-05-21T17:34:26.387Z,5.10
2023-05-21T17:36:59.938Z,4.30
2023-05-21T17:39:33.255Z,5.27
2023-05-21T17:42:06.776Z,5.07
2023-05-21T17:44:40.059Z,4.90
2023-05-21T17:47:13.444Z,3.97
2023-05-21T17:49:46.909Z,4.60
2023-05-21T17:52:20.355Z,5.00
2023-05-21T17:54:53.601Z,5.23
2023-05-21T17:57:26.905Z,4.80
2023-05-21T18:00:00.286Z,4.17
2023-05-21T18:02:33.664Z,5.03
2023-05-21T18:05:07.047Z,5.80
2023-05-21T18:07:41.268Z,4.20
2023-05-21T18:10:15.496Z,4.77
2023-05-21T18:12:48.973Z,5.70
2023-05-21T18:15:22.292Z,4.80
2023-05-21T18:17:56.003Z,5.07
2023-05-21T18:20:30.169Z,5.27
2023-05-21T18:23:03.379Z,4.47
2023-05-21T18:25:36.600Z,3.80
2023-05-21T18:28:10.441Z,4.63
2023-05-21T18:30:43.744Z,5.30
2023-05-21T18:33:17.095Z,5.40
2023-05-21T18:35:50.342Z,4.83
2023-05-21T18:38:23.630Z,4.70
2023-05-21T18:40:56.934Z,5.57
2023-05-21T18:43:30.221Z,4.40
2023-05-21T18:46:03.565Z,4.30
2023-05-21T18:48:37.127Z,5.23
2023-05-21T18:51:10.433Z,4.73
2023-05-21T18:53:43.639Z,5.20
2023-05-21T18:56:17.167Z,4.87
2023-05-21T18:58:50.606Z,5.33
2023-05-21T19:01:23.913Z,4.40
2023-05-21T19:03:57.372Z,6.13
2023-05-21T19:06:31.361Z,5.23
2023-05-21T19:09:06.322Z,4.80
2023-05-21T19:11:40.001Z,5.20
2023-05-21T19:14:13.282Z,5.50
2023-05-21T19:16:46.529Z,4.70
2023-05-21T19:19:19.811Z,3.70
2023-05-21T19:21:53.484Z,6.43
2023-05-21T19:24:26.748Z,4.50
2023-05-21T19:27:03.018Z,5.47
2023-05-21T19:29:36.338Z,5.30
2023-05-21T19:32:09.680Z,5.30
2023-05-21T19:34:43.372Z,3.77
2023-05-21T19:37:16.820Z,4.97
2023-05-21T19:39:50.481Z,4.87
2023-05-21T19:42:23.748Z,5.40
2023-05-21T19:44:56.982Z,5.00
2023-05-21T19:47:31.400Z,4.40
2023-05-21T19:50:04.919Z,4.30
2023-05-21T19:52:39.407Z,4.90
2023-05-21T19:55:14.003Z,5.20
2023-05-21T19:57:47.542Z,4.97
2023-05-21T20:00:20.944Z,5.40
2023-05-21T20:02:54.252Z,5.20
2023-05-21T20:05:27.591Z,4.90
2023-05-21T20:08:00.894Z,4.83
2023-05-21T20:10:34.241Z,5.33
2023-05-21T20:13:08.772Z,5.37
2023-05-21T20:15:42.107Z,5.90
2023-05-21T20:18:15.653Z,4.50
2023-05-21T20:20:49.269Z,4.87
2023-05-21T20:23:22.553Z,4.90
2023-05-21T20:25:55.782Z,5.23
2023-05-21T20:28:28.979Z,5.20
2023-05-21T20:31:02.768Z,5.20
2023-05-21T20:33:42.682Z,5.60
2023-05-21T20:36:17.668Z,6.10
2023-05-21T20:38:50.970Z,4.30
2023-05-21T20:41:25.288Z,5.30
2023-05-21T20:43:58.977Z,4.57
2023-05-21T20:46:32.868Z,5.10
2023-05-21T20:49:06.318Z,5.20
2023-05-21T20:51:39.626Z,5.33
2023-05-21T20:54:13.337Z,5.40
2023-05-21T20:56:46.624Z,4.97
2023-05-21T20:59:19.856Z,5.27
2023-05-21T21:01:53.202Z,5.10
2023-05-21T21:04:26.436Z,5.50
2023-05-21T21:07:01.864Z,5.47
2023-05-21T21:09:35.116Z,4.97
2023-05-21T21:12:24.153Z,5.60
2023-05-21T21:14:58.941Z,5.30
2023-05-21T21:17:32.242Z,5.30
2023-05-21T21:20:07.470Z,5.10
2023-05-21T21:22:41.222Z,5.53
2023-05-21T21:25:14.651Z,4.47
2023-05-21T21:27:47.870Z,5.03
2023-05-21T21:30:21.192Z,5.00
2023-05-21T21:32:54.644Z,5.70
2023-05-21T21:35:27.962Z,4.80
2023-05-21T21:38:01.473Z,6.47
2023-05-21T21:40:34.720Z,4.33
2023-05-21T21:43:08.020Z,4.70
2023-05-21T21:45:41.383Z,5.67
2023-05-21T21:48:16.511Z,4.83
2023-05-21T21:50:49.769Z,4.50
2023-05-21T21:53:23.004Z,5.67
2023-05-21T21:55:56.583Z,5.10
2023-05-21T21:58:29.830Z,6.20
2023-05-21T22:01:03.191Z,5.20
2023-05-21T22:03:36.894Z,5.47
2023-05-21T22:06:10.132Z,4.90
2023-05-21T22:08:43.494Z,4.87
2023-05-21T22:11:16.785Z,4.87
2023-05-21T22:13:50.026Z,5.00
2023-05-21T22:16:24.923Z,5.33
2023-05-21T22:18:58.791Z,6.10
2023-05-21T22:21:33.941Z,5.10
2023-05-21T22:24:09.533Z,5.40
2023-05-21T22:26:48.324Z,4.40
2023-05-21T22:29:21.787Z,5.60
2023-05-21T22:31:55.046Z,6.27
2023-05-21T22:34:28.500Z,4.67
2023-05-21T22:37:02.071Z,4.57
2023-05-21T22:39:35.320Z,5.37
2023-05-21T22:42:11.522Z,5.73
2023-05-21T22:44:44.838Z,5.67
2023-05-21T22:47:18.093Z,5.67
2023-05-21T22:49:54.403Z,4.97
2023-05-21T22:52:28.771Z,4.77
2023-05-21T22:55:02.233Z,4.80
2023-05-21T22:57:35.471Z,5.30
2023-05-21T23:00:10.681Z,6.47
2023-05-21T23:02:43.984Z,4.17
2023-05-21T23:05:17.317Z,4.30
2023-05-21T23:07:50.668Z,4.80
2023-05-21T23:10:23.916Z,5.83
2023-05-21T23:12:57.182Z,4.40
2023-05-21T23:15:30.486Z,5.90
2023-05-21T23:18:03.985Z,5.70
2023-05-21T23:20:39.539Z,5.10
2023-05-21T23:23:13.109Z,5.20
2023-05-21T23:25:46.330Z,5.80
2023-05-21T23:28:19.960Z,5.97
2023-05-21T23:30:53.487Z,5.83
2023-05-21T23:33:27.272Z,5.17
2023-05-21T23:36:00.550Z,5.50
2023-05-21T23:38:33.746Z,4.87
2023-05-21T23:41:07.277Z,5.73
2023-05-21T23:43:40.632Z,6.20
2023-05-21T23:46:13.967Z,5.87
2023-05-21T23:48:47.222Z,5.40
2023-05-21T23:51:20.431Z,5.37
2023-05-21T23:53:53.667Z,5.93
2023-05-21T23:56:26.909Z,4.50
2023-05-21T23:59:00.340Z,5.07
